Time;durP1;ratioP1;P1;durP2;ratioP2;P2;SDS_P1;SDS_P2;PMS_P1;PMS_P2;Temp;Humidity;BMP_temperature;BMP_pressure;BME280_temperature;BME280_humidity;BME280_pressure;Samples;Min_cycle;Max_cycle;Signal;HPM_P1;HPM_P2
2022/03/15 00:02:20;;;;;;;5.97;4.50;;;6.70;99.90;;;;;;6109171;23;20157;-93
2022/03/15 00:04:46;;;;;;;5.40;4.40;;;6.80;99.90;;;;;;6110361;23;20169;-92
2022/03/15 00:07:13;;;;;;;6.10;4.13;;;7.00;99.90;;;;;;6112478;23;20181;-91
2022/03/15 00:09:39;;;;;;;5.00;4.50;;;7.10;99.90;;;;;;6111666;23;20157;-93
2022/03/15 00:12:09;;;;;;;9.00;4.60;;;7.00;99.90;;;;;;6111293;23;20516;-93
2022/03/15 00:14:36;;;;;;;7.87;4.80;;;7.10;99.90;;;;;;6111425;23;20480;-92
2022/03/15 00:17:03;;;;;;;6.83;4.30;;;7.20;99.90;;;;;;6107711;23;20454;-93
2022/03/15 00:19:31;;;;;;;7.90;4.70;;;7.00;99.90;;;;;;6109576;23;20407;-93
2022/03/15 00:21:56;;;;;;;5.00;4.30;;;7.10;99.90;;;;;;6111150;23;20385;-92
2022/03/15 00:24:22;;;;;;;5.10;4.70;;;7.20;99.90;;;;;;6105963;23;20597;-92
2022/03/15 00:26:48;;;;;;;5.47;4.30;;;7.50;99.90;;;;;;6112202;23;20232;-92
2022/03/15 00:29:19;;;;;;;5.77;4.80;;;7.20;99.90;;;;;;6111794;23;20461;-93
2022/03/15 00:31:51;;;;;;;5.90;5.40;;;7.20;99.90;;;;;;6137451;23;20871;-91
2022/03/15 00:34:17;;;;;;;5.10;4.60;;;7.10;99.90;;;;;;6084630;23;20405;-92
2022/03/15 00:36:42;;;;;;;5.50;4.63;;;7.30;99.90;;;;;;6110058;23;20848;-92
2022/03/15 00:39:08;;;;;;;5.63;4.93;;;7.30;99.90;;;;;;6110908;23;20192;-92
2022/03/15 00:41:34;;;;;;;5.90;4.70;;;7.00;99.90;;;;;;6110924;23;20611;-91
2022/03/15 00:44:00;;;;;;;5.53;4.60;;;6.90;99.90;;;;;;6105611;23;20556;-91
2022/03/15 00:46:26;;;;;;;5.67;5.07;;;6.80;99.90;;;;;;6106473;23;20389;-92
2022/03/15 00:48:52;;;;;;;7.27;4.83;;;6.90;99.90;;;;;;6109016;23;20830;-92
2022/03/15 00:51:18;;;;;;;6.40;4.07;;;6.60;99.90;;;;;;6108767;23;20391;-93
2022/03/15 00:53:45;;;;;;;5.73;3.80;;;6.50;99.90;;;;;;6109719;23;20439;-93
2022/03/15 00:56:11;;;;;;;4.63;4.07;;;6.20;99.90;;;;;;6111645;23;20162;-92
2022/03/15 00:58:37;;;;;;;5.93;4.50;;;6.10;99.90;;;;;;6115393;23;20435;-91
2022/03/15 01:01:02;;;;;;;5.73;4.77;;;5.90;99.90;;;;;;6122739;23;20449;-94
2022/03/15 01:03:31;;;;;;;4.37;3.97;;;5.90;99.90;;;;;;6111768;23;20172;-93
2022/03/15 01:05:58;;;;;;;4.83;4.03;;;5.90;99.90;;;;;;6112762;23;20155;-92
2022/03/15 01:08:23;;;;;;;5.57;4.10;;;6.20;99.90;;;;;;6115298;23;20711;-93
2022/03/15 01:10:49;;;;;;;6.17;4.30;;;6.50;99.90;;;;;;6113536;23;20402;-92
2022/03/15 01:13:17;;;;;;;6.47;4.30;;;6.60;99.90;;;;;;6137705;23;20226;-93
2022/03/15 01:15:45;;;;;;;5.20;3.90;;;6.60;99.90;;;;;;6108905;23;20425;-92
2022/03/15 01:18:12;;;;;;;5.20;4.20;;;6.70;99.90;;;;;;6109248;23;20876;-92
2022/03/15 01:20:52;;;;;;;5.23;4.70;;;6.70;99.90;;;;;;6110406;23;20768;-92
2022/03/15 01:23:28;;;;;;;8.27;5.00;;;6.60;99.90;;;;;;6110102;23;20487;-92
2022/03/15 01:25:56;;;;;;;6.10;4.60;;;6.50;99.90;;;;;;6111381;23;20495;-93
2022/03/15 01:28:25;;;;;;;8.10;4.37;;;6.50;99.90;;;;;;6115343;23;20663;-92
2022/03/15 01:30:51;;;;;;;5.10;4.30;;;6.40;99.90;;;;;;6110899;23;20562;-93
2022/03/15 01:33:17;;;;;;;6.00;5.07;;;6.30;99.90;;;;;;6110874;23;20833;-91
2022/03/15 01:35:43;;;;;;;7.63;4.37;;;6.20;99.90;;;;;;6110060;23;20403;-91
2022/03/15 01:38:09;;;;;;;4.80;4.03;;;6.00;99.90;;;;;;6111282;23;20497;-93
2022/03/15 01:40:35;;;;;;;5.80;5.10;;;6.10;99.90;;;;;;6111116;23;20394;-94
2022/03/15 01:43:02;;;;;;;5.30;4.80;;;6.10;99.90;;;;;;6111955;23;20169;-92
2022/03/15 01:45:37;;;;;;;5.23;4.70;;;6.20;99.90;;;;;;6109392;23;20399;-92
2022/03/15 01:48:04;;;;;;;5.30;4.10;;;6.00;99.90;;;;;;6111027;23;20763;-91
2022/03/15 01:50:30;;;;;;;5.93;4.27;;;6.20;99.90;;;;;;6111337;23;20480;-93
2022/03/15 01:52:56;;;;;;;4.60;4.10;;;6.30;99.90;;;;;;6112850;23;20484;-93
2022/03/15 01:55:22;;;;;;;4.33;3.90;;;6.30;99.90;;;;;;6110989;23;20347;-94
2022/03/15 01:57:49;;;;;;;4.50;4.10;;;6.40;99.90;;;;;;6112719;23;20423;-93
2022/03/15 02:00:16;;;;;;;5.60;4.40;;;6.50;99.90;;;;;;6111081;23;20161;-95
2022/03/15 02:02:41;;;;;;;4.17;3.87;;;6.50;99.90;;;;;;6112052;23;20467;-94
2022/03/15 02:05:10;;;;;;;4.70;4.17;;;6.60;99.90;;;;;;6110109;23;20415;-94
2022/03/15 02:07:51;;;;;;;6.40;4.60;;;6.70;99.90;;;;;;6112415;23;20163;-95
2022/03/15 02:10:16;;;;;;;6.53;4.73;;;6.70;99.90;;;;;;6115540;23;20402;-94
2022/03/15 02:12:42;;;;;;;5.90;4.60;;;6.80;99.90;;;;;;6113751;23;20173;-94
2022/03/15 02:15:08;;;;;;;4.93;4.50;;;6.80;99.90;;;;;;6111933;23;20156;-93
2022/03/15 02:17:36;;;;;;;7.20;4.23;;;6.70;99.90;;;;;;6114068;23;20177;-93
2022/03/15 02:20:09;;;;;;;4.60;3.87;;;6.80;99.90;;;;;;6113172;23;20400;-94
2022/03/15 02:22:35;;;;;;;6.07;4.43;;;6.60;99.90;;;;;;6110527;23;20389;-94
2022/03/15 02:25:01;;;;;;;6.30;4.70;;;6.60;99.90;;;;;;6115001;23;20393;-92
2022/03/15 02:27:27;;;;;;;5.60;4.20;;;6.60;99.90;;;;;;6116262;23;20395;-92
2022/03/15 02:30:14;;;;;;;4.50;4.10;;;6.60;99.90;;;;;;6151468;23;20376;-92
2022/03/15 02:32:52;;;;;;;4.67;4.17;;;6.50;99.90;;;;;;6109577;23;20391;-93
2022/03/15 02:35:18;;;;;;;5.73;4.20;;;6.40;99.90;;;;;;6110479;23;20385;-94
2022/03/15 02:37:45;;;;;;;5.27;4.77;;;6.50;99.90;;;;;;6109115;23;20427;-93
2022/03/15 02:40:11;;;;;;;4.33;3.97;;;6.30;99.90;;;;;;6106298;23;20389;-92
2022/03/15 02:42:37;;;;;;;6.33;3.80;;;6.40;99.90;;;;;;6108476;23;20837;-92
2022/03/15 02:45:03;;;;;;;6.23;3.80;;;6.30;99.90;;;;;;6111152;23;20405;-92
2022/03/15 02:47:29;;;;;;;5.23;3.97;;;6.40;99.90;;;;;;6108007;23;20161;-93
2022/03/15 02:50:05;;;;;;;4.13;3.73;;;6.30;99.90;;;;;;6110917;23;20902;-92
2022/03/15 02:52:32;;;;;;;5.00;4.10;;;6.50;99.90;;;;;;6110900;23;20207;-93
2022/03/15 02:54:58;;;;;;;9.63;4.30;;;6.50;99.90;;;;;;6109458;23;20410;-92
2022/03/15 02:57:24;;;;;;;5.23;4.37;;;6.30;99.90;;;;;;6112093;23;21308;-92
2022/03/15 02:59:51;;;;;;;4.20;3.80;;;6.30;99.90;;;;;;6108833;23;20487;-93
2022/03/15 03:02:17;;;;;;;4.97;4.37;;;6.40;99.90;;;;;;6110795;23;20473;-93
2022/03/15 03:04:43;;;;;;;5.10;4.10;;;6.50;99.90;;;;;;6111754;23;20404;-94
2022/03/15 03:07:09;;;;;;;6.10;4.60;;;6.50;99.90;;;;;;6109185;23;20391;-92
2022/03/15 03:09:34;;;;;;;6.03;4.60;;;6.30;99.90;;;;;;6105368;23;20406;-90
2022/03/15 03:12:00;;;;;;;5.00;4.50;;;6.40;99.90;;;;;;6109445;23;20597;-92
2022/03/15 03:14:29;;;;;;;6.23;4.33;;;6.50;99.90;;;;;;6109822;23;20279;-92
2022/03/15 03:17:28;;;;;;;6.10;4.40;;;6.40;99.90;;;;;;6113469;23;20410;-92
2022/03/15 03:20:08;;;;;;;5.83;5.17;;;6.50;99.90;;;;;;6117999;23;20400;-94
2022/03/15 03:22:38;;;;;;;5.50;4.60;;;6.50;99.90;;;;;;6147552;23;20395;-95
2022/03/15 03:25:13;;;;;;;5.23;4.17;;;6.40;99.90;;;;;;6099604;23;20386;-95
2022/03/15 03:28:08;;;;;;;5.00;4.50;;;6.40;99.90;;;;;;6134513;23;20410;-95
2022/03/15 03:30:48;;;;;;;5.03;4.63;;;6.50;99.90;;;;;;6143039;23;20384;-91
2022/03/15 03:33:18;;;;;;;5.60;5.10;;;6.30;99.90;;;;;;6136989;23;20392;-91
2022/03/15 03:35:49;;;;;;;5.37;4.80;;;6.30;99.90;;;;;;6112328;23;20389;-91
2022/03/15 03:38:15;;;;;;;5.80;5.30;;;6.30;99.90;;;;;;6112264;23;20438;-92
2022/03/15 03:40:43;;;;;;;5.33;4.70;;;6.30;99.90;;;;;;6112196;23;20494;-94
2022/03/15 03:43:12;;;;;;;6.50;5.17;;;6.30;99.90;;;;;;6112380;23;20396;-92
2022/03/15 03:45:41;;;;;;;6.33;5.00;;;6.10;99.90;;;;;;6108371;23;20909;-92
2022/03/15 03:48:56;;;;;;;5.77;5.20;;;6.30;99.90;;;;;;6111067;23;20393;-94
2022/03/15 03:51:32;;;;;;;4.80;4.30;;;6.30;99.90;;;;;;6110102;23;20753;-92
2022/03/15 03:53:57;;;;;;;5.80;4.57;;;6.40;99.90;;;;;;6114496;23;20388;-93
2022/03/15 03:56:23;;;;;;;6.53;4.03;;;6.30;99.90;;;;;;6117267;23;20193;-95
2022/03/15 03:58:49;;;;;;;6.67;4.33;;;6.10;99.90;;;;;;6137070;23;20197;-93
2022/03/15 04:01:14;;;;;;;4.07;3.70;;;5.90;99.90;;;;;;6117158;23;20174;-92
2022/03/15 04:03:40;;;;;;;6.17;4.07;;;6.00;99.90;;;;;;6113633;23;20196;-92
2022/03/15 04:06:11;;;;;;;5.30;4.50;;;5.80;99.90;;;;;;6113998;23;20638;-94
2022/03/15 04:08:37;;;;;;;6.50;4.47;;;5.70;99.90;;;;;;6113038;23;20419;-95
2022/03/15 04:11:02;;;;;;;6.20;4.27;;;5.60;99.90;;;;;;6118998;23;20385;-94
2022/03/15 04:13:30;;;;;;;5.53;4.23;;;5.50;99.90;;;;;;6121135;23;20612;-92
2022/03/15 04:16:05;;;;;;;5.20;4.70;;;5.40;99.90;;;;;;6114395;23;20157;-92
2022/03/15 04:18:48;;;;;;;4.90;3.90;;;5.50;99.90;;;;;;6138688;23;20432;-93
2022/03/15 04:21:14;;;;;;;6.00;4.50;;;5.50;99.90;;;;;;6116340;23;20471;-93
2022/03/15 04:23:39;;;;;;;7.37;4.60;;;5.40;99.90;;;;;;6116350;23;20852;-92
2022/03/15 04:26:05;;;;;;;5.43;4.13;;;5.30;99.90;;;;;;6113312;23;20335;-93
2022/03/15 04:28:31;;;;;;;5.63;4.97;;;5.20;99.90;;;;;;6114126;23;20216;-92
2022/03/15 04:30:56;;;;;;;5.33;4.60;;;5.10;99.90;;;;;;6118921;23;20406;-94
2022/03/15 04:33:22;;;;;;;8.23;5.33;;;5.10;99.90;;;;;;6117977;23;20161;-95
2022/03/15 04:35:50;;;;;;;5.30;4.80;;;5.20;99.90;;;;;;6124622;23;20208;-95
2022/03/15 04:38:16;;;;;;;5.53;5.00;;;5.10;99.90;;;;;;6120854;23;20212;-94
2022/03/15 04:40:44;;;;;;;7.07;5.17;;;5.10;99.90;;;;;;6125702;23;20400;-95
2022/03/15 04:43:13;;;;;;;6.30;4.60;;;5.10;99.90;;;;;;6112020;23;20219;-94
2022/03/15 04:45:38;;;;;;;5.37;4.87;;;5.20;99.90;;;;;;6109611;23;20396;-93
2022/03/15 04:48:05;;;;;;;8.37;4.97;;;5.30;99.90;;;;;;6121510;23;20184;-93
2022/03/15 04:50:42;;;;;;;8.57;4.67;;;5.30;99.90;;;;;;6116250;23;20209;-93
2022/03/15 04:53:07;;;;;;;7.57;4.53;;;5.30;99.90;;;;;;6112890;23;20669;-93
2022/03/15 04:55:36;;;;;;;5.43;4.60;;;5.30;99.90;;;;;;6108567;23;20673;-94
2022/03/15 04:58:03;;;;;;;9.50;4.73;;;5.20;99.90;;;;;;6113115;23;20390;-94
2022/03/15 05:00:29;;;;;;;6.33;4.63;;;5.30;99.90;;;;;;6113027;23;20396;-94
2022/03/15 05:02:55;;;;;;;4.83;4.43;;;5.20;99.90;;;;;;6113835;23;20401;-93
2022/03/15 05:05:20;;;;;;;9.13;5.40;;;5.20;99.90;;;;;;6114900;23;20161;-94
2022/03/15 05:07:49;;;;;;;4.60;4.20;;;5.20;99.90;;;;;;6090278;23;20256;-91
2022/03/15 05:13:00;;;;;;;4.80;4.37;;;5.10;99.90;;;;;;6133180;23;20902;-91
2022/03/15 05:15:26;;;;;;;6.20;5.00;;;5.20;99.90;;;;;;6107594;23;20400;-92
2022/03/15 05:17:52;;;;;;;9.60;4.67;;;5.20;99.90;;;;;;6106722;23;20860;-92
2022/03/15 05:20:17;;;;;;;7.33;4.53;;;5.30;99.90;;;;;;6111621;23;20900;-91
2022/03/15 05:22:48;;;;;;;7.50;4.60;;;5.20;99.90;;;;;;6111171;23;20157;-92
2022/03/15 05:25:14;;;;;;;6.40;5.33;;;5.30;99.90;;;;;;6109736;23;20440;-91
2022/03/15 05:27:43;;;;;;;4.93;4.23;;;5.40;99.90;;;;;;6120706;23;20463;-92
2022/03/15 05:30:09;;;;;;;6.17;4.43;;;5.40;99.90;;;;;;6112229;23;20408;-92
2022/03/15 05:32:37;;;;;;;5.47;4.57;;;5.50;99.90;;;;;;6109191;23;20385;-92
2022/03/15 05:35:04;;;;;;;5.80;5.10;;;5.50;99.90;;;;;;6110409;23;20946;-92
2022/03/15 05:37:32;;;;;;;6.80;5.37;;;5.50;99.90;;;;;;6108336;23;20392;-91
2022/03/15 05:40:00;;;;;;;5.87;5.27;;;5.40;99.90;;;;;;6109024;23;20397;-92
2022/03/15 05:42:26;;;;;;;10.23;5.80;;;5.40;99.90;;;;;;6106741;23;20945;-93
2022/03/15 05:44:52;;;;;;;5.73;5.10;;;5.40;99.90;;;;;;6133847;23;20483;-92
2022/03/15 05:47:17;;;;;;;6.23;4.83;;;5.40;99.90;;;;;;6110872;23;20172;-92
2022/03/15 05:49:43;;;;;;;8.10;5.57;;;5.40;99.90;;;;;;6111433;23;20193;-94
2022/03/15 05:52:09;;;;;;;6.40;4.80;;;5.40;99.90;;;;;;6111198;23;20439;-93
2022/03/15 05:54:35;;;;;;;12.63;5.10;;;5.40;99.90;;;;;;6110347;23;20160;-95
2022/03/15 05:57:02;;;;;;;5.97;5.07;;;5.40;99.90;;;;;;6106460;23;20156;-92
2022/03/15 05:59:28;;;;;;;7.87;5.50;;;5.50;99.90;;;;;;6104380;23;20795;-90
2022/03/15 06:01:55;;;;;;;6.23;4.83;;;5.50;99.90;;;;;;6102194;23;20460;-94
2022/03/15 06:04:26;;;;;;;7.17;5.23;;;5.60;99.90;;;;;;6119256;23;20364;-93
2022/03/15 06:07:00;;;;;;;7.33;5.27;;;5.50;99.90;;;;;;6092700;23;20484;-93
2022/03/15 06:09:30;;;;;;;10.77;5.20;;;5.60;99.90;;;;;;6142059;23;20495;-92
2022/03/15 06:12:01;;;;;;;5.93;4.80;;;5.60;99.90;;;;;;6107478;23;20863;-94
2022/03/15 06:14:27;;;;;;;6.17;4.77;;;5.60;99.90;;;;;;6110105;23;20416;-93
2022/03/15 06:17:02;;;;;;;7.53;5.10;;;5.70;99.90;;;;;;6087398;23;20403;-94
2022/03/15 06:19:27;;;;;;;5.73;4.90;;;5.70;99.90;;;;;;6095725;23;20162;-96
2022/03/15 06:21:53;;;;;;;6.80;5.40;;;5.60;99.90;;;;;;6120651;23;20455;-94
2022/03/15 06:24:19;;;;;;;8.53;5.60;;;5.70;99.90;;;;;;6128707;23;20208;-96
2022/03/15 06:26:46;;;;;;;5.10;4.70;;;5.80;99.90;;;;;;6129876;23;20162;-96
2022/03/15 06:29:13;;;;;;;5.83;4.40;;;5.90;99.90;;;;;;6118632;23;20451;-95
2022/03/15 06:31:39;;;;;;;7.03;4.80;;;5.90;99.90;;;;;;6106408;23;20386;-94
2022/03/15 06:34:04;;;;;;;5.40;4.90;;;5.90;99.90;;;;;;6111564;23;20401;-92
2022/03/15 06:36:30;;;;;;;7.10;4.70;;;6.00;99.90;;;;;;6117965;23;20161;-94
2022/03/15 06:38:57;;;;;;;14.80;9.90;;;6.10;99.90;;;;;;6133896;23;20186;-96
2022/03/15 06:41:29;;;;;;;9.60;6.13;;;6.10;99.90;;;;;;6142470;23;20439;-96
2022/03/15 06:44:01;;;;;;;6.90;5.53;;;6.20;99.90;;;;;;6140172;23;20384;-96
2022/03/15 06:46:27;;;;;;;5.90;5.07;;;6.30;99.90;;;;;;6136024;23;20399;-94
2022/03/15 06:48:52;;;;;;;5.50;4.83;;;6.40;99.90;;;;;;6119991;23;20453;-96
2022/03/15 06:51:18;;;;;;;8.73;4.70;;;6.60;99.90;;;;;;6127943;23;20382;-95
2022/03/15 06:53:44;;;;;;;6.37;4.73;;;6.60;99.90;;;;;;6127511;23;20185;-92
2022/03/15 06:56:09;;;;;;;5.73;4.87;;;6.50;99.90;;;;;;6135169;23;20486;-95
2022/03/15 06:58:35;;;;;;;7.40;5.47;;;6.60;99.90;;;;;;6118759;23;20196;-90
2022/03/15 07:01:00;;;;;;;8.47;4.87;;;6.50;99.90;;;;;;6112770;23;20163;-92
2022/03/15 07:03:26;;;;;;;5.73;4.53;;;6.50;99.90;;;;;;6109892;23;20594;-92
2022/03/15 07:05:52;;;;;;;10.83;5.60;;;6.60;99.90;;;;;;6111626;23;20170;-94
2022/03/15 07:08:17;;;;;;;7.90;5.10;;;6.70;99.90;;;;;;6112602;23;20226;-92
2022/03/15 07:10:43;;;;;;;10.00;5.40;;;6.60;99.90;;;;;;6107989;23;20158;-92
2022/03/15 07:13:09;;;;;;;5.10;4.60;;;6.70;99.90;;;;;;6107028;23;20437;-92
2022/03/15 07:15:34;;;;;;;5.90;5.40;;;6.80;99.90;;;;;;6108266;23;20378;-93
2022/03/15 07:18:00;;;;;;;7.70;5.80;;;6.80;99.90;;;;;;6118116;23;20182;-95
2022/03/15 07:20:27;;;;;;;7.30;5.20;;;7.00;99.90;;;;;;6121027;23;20335;-95
2022/03/15 07:22:53;;;;;;;5.53;4.80;;;7.10;99.90;;;;;;6118773;23;20458;-93
2022/03/15 07:25:20;;;;;;;6.90;5.33;;;7.20;99.90;;;;;;6127858;23;20411;-94
2022/03/15 07:27:46;;;;;;;7.17;5.67;;;7.10;99.90;;;;;;6128383;23;20435;-95
2022/03/15 07:30:13;;;;;;;7.70;4.47;;;7.00;99.90;;;;;;6130621;23;20424;-95
2022/03/15 07:32:38;;;;;;;6.47;4.57;;;7.10;99.90;;;;;;6135228;23;20501;-96
2022/03/15 07:35:09;;;;;;;10.77;5.47;;;7.10;99.90;;;;;;6126931;23;20429;-95
2022/03/15 07:37:55;;;;;;;8.50;5.13;;;7.10;99.90;;;;;;6161888;23;20157;-95
2022/03/15 07:40:27;;;;;;;8.30;4.67;;;7.20;99.90;;;;;;6133134;23;20379;-94
2022/03/15 07:42:56;;;;;;;5.03;4.33;;;7.40;99.90;;;;;;6135398;23;20391;-93
2022/03/15 07:45:35;;;;;;;5.40;4.60;;;7.50;99.90;;;;;;6115817;23;20431;-96
2022/03/15 07:48:01;;;;;;;5.67;5.17;;;7.60;99.90;;;;;;6173406;23;20431;-95
2022/03/15 07:50:37;;;;;;;7.90;4.33;;;7.70;99.90;;;;;;6134093;23;20412;-95
2022/03/15 07:53:03;;;;;;;5.00;4.40;;;7.80;99.90;;;;;;6131722;23;20438;-95
2022/03/15 07:55:30;;;;;;;5.50;5.00;;;7.80;99.90;;;;;;6139503;23;20396;-93
2022/03/15 07:57:56;;;;;;;7.47;5.07;;;7.70;99.90;;;;;;6138097;23;20366;-95
2022/03/15 08:00:22;;;;;;;5.27;4.70;;;7.80;99.90;;;;;;6137643;23;20411;-96
2022/03/15 08:02:52;;;;;;;5.23;4.77;;;7.90;99.90;;;;;;6145279;23;20168;-95
2022/03/15 08:05:18;;;;;;;6.93;5.50;;;8.10;99.90;;;;;;6135739;23;20522;-96
2022/03/15 08:07:45;;;;;;;8.93;6.30;;;8.00;99.90;;;;;;6124853;23;20526;-94
2022/03/15 08:11:06;;;;;;;7.97;5.70;;;8.00;99.90;;;;;;6125159;23;20397;-96
2022/03/15 08:13:32;;;;;;;7.03;5.20;;;8.10;99.90;;;;;;6136400;23;20397;-96
2022/03/15 08:15:58;;;;;;;8.33;5.43;;;8.00;99.90;;;;;;6124437;23;20389;-95
2022/03/15 08:18:29;;;;;;;6.43;5.83;;;8.10;99.90;;;;;;6132235;23;20401;-96
2022/03/15 08:21:07;;;;;;;6.53;5.93;;;8.40;99.90;;;;;;6155619;23;20156;-96
2022/03/15 08:23:33;;;;;;;7.17;5.67;;;8.50;99.90;;;;;;6124909;23;20385;-95
2022/03/15 08:25:58;;;;;;;5.30;4.80;;;8.30;99.90;;;;;;6137060;23;20419;-95
2022/03/15 08:28:27;;;;;;;6.23;5.17;;;8.30;99.90;;;;;;6134280;23;20199;-95
2022/03/15 08:30:54;;;;;;;6.57;4.90;;;8.40;99.90;;;;;;6137144;23;20220;-96
2022/03/15 08:33:20;;;;;;;5.50;5.00;;;8.50;99.90;;;;;;6133294;23;20402;-96
2022/03/15 08:35:46;;;;;;;5.30;4.80;;;8.60;99.90;;;;;;6140727;23;20384;-95
2022/03/15 08:38:12;;;;;;;7.70;5.43;;;8.70;99.90;;;;;;6136828;23;20460;-96
2022/03/15 08:40:41;;;;;;;7.07;5.30;;;8.50;99.90;;;;;;6147705;23;20408;-96
2022/03/15 08:43:06;;;;;;;5.83;4.80;;;8.50;99.90;;;;;;6145853;23;20205;-96
2022/03/15 08:45:33;;;;;;;7.20;4.80;;;8.50;99.90;;;;;;6131570;23;20397;-95
2022/03/15 08:48:01;;;;;;;8.07;5.87;;;8.60;99.90;;;;;;6125115;23;20190;-96
2022/03/15 08:53:26;;;;;;;8.53;5.90;;;8.70;99.90;;;;;;6142912;23;20811;-93
2022/03/15 08:55:52;;;;;;;5.73;5.00;;;8.70;99.90;;;;;;6142504;23;20471;-93
2022/03/15 08:58:17;;;;;;;7.20;4.83;;;8.70;99.90;;;;;;6112964;23;20511;-94
2022/03/15 09:00:43;;;;;;;9.10;5.50;;;8.90;99.90;;;;;;6119082;23;20171;-94
2022/03/15 09:03:09;;;;;;;7.47;5.13;;;9.00;99.90;;;;;;6124580;23;20184;-92
2022/03/15 09:05:40;;;;;;;7.80;5.67;;;9.00;99.90;;;;;;6128590;23;20393;-96
2022/03/15 09:08:15;;;;;;;7.60;5.57;;;9.10;99.90;;;;;;6146740;23;20213;-96
2022/03/15 09:10:55;;;;;;;6.43;5.13;;;9.20;99.90;;;;;;6162671;23;20440;-96
2022/03/15 09:13:29;;;;;;;8.13;5.47;;;9.30;99.90;;;;;;6182332;23;21022;-96
2022/03/15 09:16:13;;;;;;;5.47;4.97;;;9.50;99.90;;;;;;6178754;23;20386;-94
2022/03/15 09:18:40;;;;;;;7.40;5.57;;;9.50;99.90;;;;;;6175980;23;20448;-94
2022/03/15 09:21:12;;;;;;;11.87;5.67;;;9.50;99.90;;;;;;6193312;23;20387;-96
2022/03/15 09:23:41;;;;;;;5.60;5.10;;;9.30;99.90;;;;;;6169246;23;20359;-96
2022/03/15 09:26:13;;;;;;;6.73;4.87;;;9.30;99.90;;;;;;6174439;23;20398;-95
2022/03/15 09:28:41;;;;;;;5.70;5.20;;;9.40;99.90;;;;;;6186415;23;20437;-95
2022/03/15 09:31:09;;;;;;;7.73;5.13;;;9.40;99.90;;;;;;6186388;23;20812;-95
2022/03/15 09:33:39;;;;;;;6.90;5.60;;;9.40;99.90;;;;;;6192554;23;20382;-94
2022/03/15 09:36:40;;;;;;;7.60;6.07;;;9.40;99.90;;;;;;6197187;23;20391;-96
2022/03/15 15:54:52;;;;;;;5.17;4.70;;;11.00;99.90;;;;;;6130786;23;20826;-84
2022/03/15 15:57:18;;;;;;;6.30;5.53;;;11.10;99.90;;;;;;6126514;23;20393;-83
2022/03/15 16:00:12;;;;;;;6.20;5.57;;;11.10;99.90;;;;;;6108893;23;20423;-91
2022/03/15 16:02:38;;;;;;;6.23;5.67;;;11.20;99.90;;;;;;6109966;23;20168;-88
2022/03/15 16:05:20;;;;;;;5.53;5.03;;;11.30;99.90;;;;;;6107196;23;20397;-92
2022/03/15 16:07:56;;;;;;;6.63;4.37;;;11.20;99.90;;;;;;6111532;23;20439;-91
2022/03/15 16:10:22;;;;;;;5.70;5.20;;;11.20;99.90;;;;;;6099850;23;20400;-90
2022/03/15 16:13:00;;;;;;;5.20;4.70;;;11.20;99.90;;;;;;6137308;23;20453;-88
2022/03/15 16:15:31;;;;;;;4.67;4.20;;;11.10;99.90;;;;;;6109709;23;20396;-93
2022/03/15 16:18:00;;;;;;;4.70;4.30;;;11.00;99.90;;;;;;6108449;23;20403;-89
2022/03/15 16:20:29;;;;;;;7.10;4.63;;;10.90;99.90;;;;;;6111213;23;20392;-89
2022/03/15 16:22:56;;;;;;;7.50;5.30;;;10.90;99.90;;;;;;6108728;23;20547;-89
2022/03/15 16:25:27;;;;;;;6.53;5.90;;;10.80;99.90;;;;;;6107244;23;20392;-89
2022/03/15 16:27:53;;;;;;;5.60;5.10;;;10.70;99.90;;;;;;6110593;23;20911;-88
2022/03/15 16:30:18;;;;;;;5.57;5.03;;;10.70;99.90;;;;;;6103306;23;20427;-88
2022/03/15 16:32:49;;;;;;;9.27;5.67;;;10.80;99.90;;;;;;6100146;23;20158;-88
2022/03/15 16:35:15;;;;;;;5.73;5.07;;;10.70;99.90;;;;;;6084365;23;20489;-89
2022/03/15 16:37:41;;;;;;;5.97;5.37;;;10.50;99.90;;;;;;6126790;23;21006;-90
2022/03/15 16:40:07;;;;;;;7.23;5.60;;;10.50;99.90;;;;;;6079074;23;20384;-88
2022/03/15 16:43:00;;;;;;;6.53;4.77;;;10.50;99.90;;;;;;6105517;23;20192;-90
2022/03/15 16:45:56;;;;;;;7.10;6.50;;;10.40;99.90;;;;;;6129198;23;20386;-92
2022/03/15 16:48:21;;;;;;;9.87;7.23;;;10.50;99.90;;;;;;6110720;23;20432;-87
2022/03/15 16:50:55;;;;;;;6.50;5.80;;;10.50;99.90;;;;;;6105529;23;20450;-89
2022/03/15 16:53:58;;;;;;;11.23;10.13;;;10.40;99.90;;;;;;6130507;23;20172;-89
2022/03/15 16:56:25;;;;;;;8.90;8.10;;;10.40;99.90;;;;;;6100953;23;20397;-89
2022/03/15 16:59:11;;;;;;;10.40;7.90;;;10.30;99.90;;;;;;6103817;23;20388;-88
2022/03/15 17:01:40;;;;;;;8.40;7.60;;;10.20;99.90;;;;;;6083726;23;20926;-90
2022/03/15 17:07:02;;;;;;;8.80;8.00;;;10.30;99.90;;;;;;6129073;23;20393;-90
2022/03/15 17:09:29;;;;;;;7.00;6.40;;;10.30;99.90;;;;;;6105960;23;20444;-87
2022/03/15 17:11:58;;;;;;;7.43;6.73;;;10.30;99.90;;;;;;6105082;23;21228;-94
2022/03/15 17:14:28;;;;;;;7.87;6.43;;;10.30;99.90;;;;;;6103858;23;20767;-89
2022/03/15 17:17:06;;;;;;;13.60;8.80;;;10.30;99.90;;;;;;6107387;23;20400;-89
2022/03/15 17:19:46;;;;;;;8.47;7.67;;;10.30;99.90;;;;;;6094450;23;20472;-86
2022/03/15 17:22:26;;;;;;;13.00;7.57;;;10.30;99.90;;;;;;6132167;23;20372;-90
2022/03/15 17:25:03;;;;;;;8.33;7.20;;;10.20;99.90;;;;;;6108523;23;20396;-91
2022/03/15 17:27:37;;;;;;;9.23;8.23;;;10.10;99.90;;;;;;6106148;23;20388;-89
2022/03/15 17:30:12;;;;;;;10.13;8.63;;;10.00;99.90;;;;;;6080508;23;20617;-92
2022/03/15 17:33:09;;;;;;;8.03;7.10;;;10.00;99.90;;;;;;6105002;23;20435;-91
2022/03/15 17:35:38;;;;;;;7.30;6.60;;;10.00;99.90;;;;;;6135146;23;20392;-91
2022/03/15 17:38:09;;;;;;;11.27;7.37;;;10.00;99.90;;;;;;6108590;23;20393;-92
2022/03/15 17:40:35;;;;;;;7.80;6.70;;;9.80;99.90;;;;;;6109249;23;20451;-91
2022/03/15 17:43:09;;;;;;;7.30;6.70;;;10.10;99.90;;;;;;6108101;23;20451;-89
2022/03/15 17:45:38;;;;;;;7.77;6.87;;;10.00;99.90;;;;;;6112076;23;20191;-90
2022/03/15 17:48:06;;;;;;;7.00;6.40;;;10.00;99.90;;;;;;6119150;23;20424;-90
2022/03/15 17:50:32;;;;;;;7.93;7.13;;;9.90;99.90;;;;;;6111240;23;20780;-90
2022/03/15 17:53:05;;;;;;;7.73;6.90;;;9.90;99.90;;;;;;6106997;23;20409;-89
2022/03/15 17:55:33;;;;;;;8.73;7.70;;;9.90;99.90;;;;;;6108984;23;20895;-91
2022/03/15 17:57:59;;;;;;;8.43;7.57;;;9.80;99.90;;;;;;6112835;23;20403;-90
2022/03/15 18:00:24;;;;;;;7.87;7.07;;;9.90;99.90;;;;;;6110325;23;20389;-90
2022/03/15 18:02:53;;;;;;;9.23;8.30;;;9.90;99.90;;;;;;6105370;23;20494;-88
2022/03/15 18:05:22;;;;;;;8.67;7.20;;;9.80;99.90;;;;;;6101237;23;20165;-87
2022/03/15 18:07:56;;;;;;;7.67;6.97;;;9.60;99.90;;;;;;6104533;23;20392;-87
2022/03/15 18:10:50;;;;;;;7.63;6.93;;;9.60;99.90;;;;;;6080572;23;20409;-88
2022/03/15 18:13:38;;;;;;;8.47;7.67;;;9.60;99.90;;;;;;6127377;23;20403;-88
2022/03/15 18:16:06;;;;;;;8.83;7.60;;;9.70;99.90;;;;;;6099789;23;20558;-88
2022/03/15 18:18:32;;;;;;;9.60;7.43;;;9.70;99.90;;;;;;6078344;23;20403;-87
2022/03/15 18:21:00;;;;;;;8.30;7.00;;;9.70;99.90;;;;;;6101812;23;20385;-88
2022/03/15 18:23:29;;;;;;;7.73;7.03;;;9.60;99.90;;;;;;6104401;23;20157;-88
2022/03/15 18:25:56;;;;;;;7.83;7.03;;;9.70;99.90;;;;;;6106289;23;20399;-87
2022/03/15 18:28:27;;;;;;;8.13;7.33;;;9.70;99.90;;;;;;6105595;23;20520;-88
2022/03/15 18:30:56;;;;;;;12.33;10.43;;;9.70;99.90;;;;;;6110601;23;20886;-88
2022/03/15 18:33:34;;;;;;;9.97;8.70;;;9.80;99.90;;;;;;6111709;23;20388;-87
2022/03/15 18:36:03;;;;;;;9.67;8.40;;;9.90;99.90;;;;;;6106829;23;20531;-88
2022/03/15 18:38:29;;;;;;;8.70;7.90;;;9.80;99.90;;;;;;6109628;23;20452;-88
2022/03/15 18:40:56;;;;;;;8.30;7.70;;;9.80;99.90;;;;;;6107967;23;20468;-87
2022/03/15 18:43:24;;;;;;;8.70;7.90;;;9.60;99.90;;;;;;6109821;23;20396;-88
2022/03/15 18:46:01;;;;;;;9.93;8.07;;;9.80;99.90;;;;;;6109226;23;20565;-87
2022/03/15 18:48:43;;;;;;;8.30;7.37;;;9.70;99.90;;;;;;6147561;23;20432;-88
2022/03/15 18:51:08;;;;;;;8.87;8.07;;;9.50;99.90;;;;;;6117528;23;20396;-87
2022/03/15 18:53:40;;;;;;;8.53;7.70;;;9.60;99.90;;;;;;6111065;23;20257;-87
2022/03/15 18:56:08;;;;;;;9.20;8.40;;;9.60;99.90;;;;;;6136192;23;20185;-87
2022/03/15 18:58:35;;;;;;;8.53;7.53;;;9.60;99.90;;;;;;6110242;23;20771;-87
2022/03/15 19:01:04;;;;;;;13.10;7.60;;;9.50;99.90;;;;;;6108834;23;20771;-87
2022/03/15 19:03:36;;;;;;;7.90;7.10;;;9.50;99.90;;;;;;6111106;23;20898;-87
2022/03/15 19:06:09;;;;;;;7.60;6.93;;;9.60;99.90;;;;;;6112051;23;20854;-88
2022/03/15 19:08:40;;;;;;;8.00;7.33;;;9.50;99.90;;;;;;6113264;23;20447;-87
2022/03/15 19:11:09;;;;;;;10.57;7.83;;;9.40;99.90;;;;;;6112155;23;20459;-88
2022/03/15 19:13:35;;;;;;;14.23;8.47;;;9.30;99.90;;;;;;6086974;23;20888;-88
2022/03/15 19:16:01;;;;;;;7.87;7.10;;;9.40;99.90;;;;;;6112215;23;20405;-87
2022/03/15 19:18:27;;;;;;;7.67;7.07;;;9.30;99.90;;;;;;6110899;23;20181;-88
2022/03/15 19:20:56;;;;;;;11.10;7.67;;;9.40;99.90;;;;;;6113097;23;21040;-87
2022/03/15 19:23:24;;;;;;;9.00;8.00;;;9.40;99.90;;;;;;6111314;23;20404;-87
2022/03/15 19:25:49;;;;;;;10.90;8.33;;;9.40;99.90;;;;;;6111733;23;20821;-86
2022/03/15 19:28:17;;;;;;;9.27;8.40;;;9.50;99.90;;;;;;6110230;23;20431;-86
2022/03/15 19:30:43;;;;;;;10.00;8.67;;;9.40;99.90;;;;;;6104705;23;20192;-87
2022/03/15 19:33:13;;;;;;;10.40;8.20;;;9.40;99.90;;;;;;6104984;23;20751;-87